createdAt,value
2023-01-19T00:00:44.221Z,17.55
2023-01-19T00:03:16.131Z,15.57
2023-01-19T00:05:44.593Z,16.92
2023-01-19T00:08:15.552Z,16.33
2023-01-19T00:10:44.774Z,15.35
2023-01-19T00:13:16.146Z,15.57
2023-01-19T00:15:43.948Z,18.33
2023-01-19T00:18:11.513Z,17.88
2023-01-19T00:20:39.037Z,16.25
2023-01-19T00:23:07.979Z,16.20
2023-01-19T00:25:35.823Z,14.80
2023-01-19T00:28:03.503Z,15.57
2023-01-19T00:30:32.332Z,16.08
2023-01-19T00:33:00.387Z,15.65
2023-01-19T00:35:28.160Z,16.58
2023-01-19T00:37:56.784Z,15.27
2023-01-19T00:40:24.313Z,13.02
2023-01-19T00:42:50.854Z,13.45
2023-01-19T00:45:19.840Z,13.52
2023-01-19T00:47:50.251Z,16.52
2023-01-19T00:50:18.658Z,14.07
2023-01-19T00:52:46.291Z,14.18
2023-01-19T00:55:15.493Z,13.05
2023-01-19T00:57:43.956Z,15.95
2023-01-19T01:00:14.138Z,15.55
2023-01-19T01:02:43.640Z,14.38
2023-01-19T01:05:13.447Z,15.95
2023-01-19T01:07:41.834Z,14.45
2023-01-19T01:10:10.646Z,18.75
2023-01-19T01:12:39.149Z,16.42
2023-01-19T01:15:08.665Z,16.92
2023-01-19T01:17:36.228Z,14.13
2023-01-19T01:20:04.734Z,15.52
2023-01-19T01:22:33.687Z,12.30
2023-01-19T01:25:01.258Z,17.35
2023-01-19T01:27:28.811Z,13.20
2023-01-19T01:29:56.343Z,14.45
2023-01-19T01:32:23.898Z,16.75
2023-01-19T01:34:51.421Z,15.63
2023-01-19T01:37:19.025Z,13.82
2023-01-19T01:39:47.884Z,14.95
2023-01-19T01:42:18.322Z,13.88
2023-01-19T01:44:52.085Z,15.45
2023-01-19T01:47:24.892Z,16.42
2023-01-19T01:52:25.067Z,15.38
2023-01-19T01:54:54.067Z,14.60
2023-01-19T01:57:23.100Z,18.70
2023-01-19T01:59:51.611Z,19.23
2023-01-19T02:02:39.793Z,18.13
2023-01-19T02:05:10.469Z,15.10
2023-01-19T02:08:04.898Z,21.27
2023-01-19T02:10:52.386Z,18.25
2023-01-19T02:13:22.965Z,16.20
2023-01-19T02:15:52.604Z,17.80
2023-01-19T02:18:21.255Z,15.27
2023-01-19T02:20:57.732Z,14.23
2023-01-19T02:23:43.825Z,14.07
2023-01-19T02:26:15.310Z,18.77
2023-01-19T02:28:46.139Z,15.43
2023-01-19T02:31:15.104Z,15.07
2023-01-19T02:33:42.818Z,15.35
2023-01-19T02:36:13.391Z,14.80
2023-01-19T02:38:44.975Z,16.73
2023-01-19T02:41:16.865Z,15.27
2023-01-19T02:43:45.486Z,16.60
2023-01-19T02:46:15.508Z,13.85
2023-01-19T02:48:43.795Z,14.55
2023-01-19T02:51:15.552Z,18.80
2023-01-19T02:54:14.671Z,15.55
2023-01-19T02:57:01.289Z,16.17
2023-01-19T02:59:44.978Z,15.93
2023-01-19T03:02:22.991Z,15.57
2023-01-19T03:05:00.984Z,16.55
2023-01-19T03:07:41.613Z,18.65
2023-01-19T03:10:18.293Z,15.73
2023-01-19T03:12:51.763Z,16.75
2023-01-19T03:15:24.052Z,17.52
2023-01-19T03:17:54.125Z,18.25
2023-01-19T03:20:25.472Z,17.58
2023-01-19T03:22:56.592Z,15.75
2023-01-19T03:25:26.641Z,18.60
2023-01-19T03:27:58.503Z,17.10
2023-01-19T03:30:29.920Z,16.97
2023-01-19T03:33:03.185Z,15.82
2023-01-19T03:35:35.636Z,14.45
2023-01-19T03:38:08.616Z,15.23
2023-01-19T03:40:38.052Z,15.00
2023-01-19T03:43:06.871Z,17.65
2023-01-19T03:45:37.837Z,17.50
2023-01-19T03:48:06.130Z,16.13
2023-01-19T03:50:33.825Z,15.07
2023-01-19T03:53:03.666Z,16.35
2023-01-19T03:55:31.182Z,14.00
2023-01-19T03:58:00.152Z,15.80
2023-01-19T04:00:27.699Z,16.85
2023-01-19T04:02:55.435Z,15.40
2023-01-19T04:05:23.247Z,11.93
2023-01-19T04:07:50.994Z,19.55
2023-01-19T04:10:19.236Z,15.93
2023-01-19T04:12:47.055Z,15.35
2023-01-19T04:15:16.730Z,14.35
2023-01-19T04:17:44.249Z,16.13
2023-01-19T04:20:12.122Z,14.88
2023-01-19T04:22:40.111Z,15.25
2023-01-19T04:25:09.063Z,16.27
2023-01-19T04:27:36.661Z,17.33
2023-01-19T04:30:04.639Z,14.13
2023-01-19T04:32:33.842Z,13.05
2023-01-19T04:35:01.359Z,17.45
2023-01-19T04:37:28.935Z,15.75
2023-01-19T04:39:56.457Z,15.55
2023-01-19T04:42:23.936Z,14.30
2023-01-19T04:44:52.567Z,16.10
2023-01-19T04:47:20.098Z,13.90
2023-01-19T04:49:48.945Z,13.10
2023-01-19T04:52:16.431Z,13.57
2023-01-19T04:54:43.926Z,18.83
2023-01-19T04:57:11.434Z,15.43
2023-01-19T04:59:38.995Z,15.32
2023-01-19T05:02:06.539Z,12.18
2023-01-19T05:04:34.076Z,17.02
2023-01-19T05:07:02.941Z,12.90
2023-01-19T05:09:30.625Z,14.57
2023-01-19T05:11:58.155Z,15.55
2023-01-19T05:14:25.669Z,14.15
2023-01-19T05:16:53.238Z,14.70
2023-01-19T05:19:21.123Z,14.02
2023-01-19T05:21:48.761Z,14.90
2023-01-19T05:24:18.342Z,20.55
2023-01-19T05:26:45.789Z,13.45
2023-01-19T05:29:13.681Z,12.13
2023-01-19T05:31:41.259Z,13.48
2023-01-19T05:34:11.798Z,11.07
2023-01-19T05:36:39.866Z,14.10
2023-01-19T05:39:07.577Z,11.60
2023-01-19T05:41:36.849Z,11.52
2023-01-19T05:44:04.559Z,12.90
2023-01-19T05:46:32.263Z,15.25
2023-01-19T05:49:01.636Z,16.20
2023-01-19T05:51:34.846Z,15.43
2023-01-19T05:54:02.466Z,13.40
2023-01-19T05:56:30.366Z,11.95
2023-01-19T05:59:01.659Z,16.33
2023-01-19T06:01:29.375Z,12.40
2023-01-19T06:03:58.301Z,10.15
2023-01-19T06:06:26.053Z,11.35
2023-01-19T06:08:53.546Z,11.02
2023-01-19T06:11:21.911Z,12.20
2023-01-19T06:13:49.716Z,11.52
2023-01-19T06:16:28.250Z,13.98
2023-01-19T06:18:56.049Z,14.27
2023-01-19T06:21:24.062Z,13.57
2023-01-19T06:23:51.578Z,13.20
2023-01-19T06:26:19.077Z,16.00
2023-01-19T06:28:46.565Z,14.93
2023-01-19T06:31:14.094Z,16.98
2023-01-19T06:33:43.015Z,15.95
2023-01-19T06:36:10.724Z,16.85
2023-01-19T06:38:38.214Z,17.88
2023-01-19T06:41:05.984Z,15.25
2023-01-19T06:43:33.442Z,19.25
2023-01-19T06:46:01.707Z,22.45
2023-01-19T06:48:30.392Z,16.65
2023-01-19T06:50:59.934Z,17.23
2023-01-19T06:53:30.125Z,15.30
2023-01-19T06:55:59.868Z,18.08
2023-01-19T06:58:27.888Z,14.38
2023-01-19T07:00:56.182Z,18.55
2023-01-19T07:03:24.345Z,17.85
2023-01-19T07:05:52.654Z,19.33
2023-01-19T07:08:21.658Z,16.08
2023-01-19T07:11:26.262Z,13.20
2023-01-19T07:13:38.471Z,16.60
2023-01-19T07:16:08.162Z,13.00
2023-01-19T07:18:35.856Z,19.20
2023-01-19T07:21:03.433Z,18.50
2023-01-19T07:23:32.599Z,16.60
2023-01-19T07:26:01.679Z,13.30
2023-01-19T07:28:29.748Z,15.10
2023-01-19T07:30:57.693Z,15.65
2023-01-19T07:33:25.810Z,13.27
2023-01-19T07:35:54.369Z,15.32
2023-01-19T07:38:22.523Z,18.38
2023-01-19T07:40:51.344Z,15.10
2023-01-19T07:43:19.388Z,16.88
2023-01-19T07:45:46.953Z,18.20
2023-01-19T07:48:14.425Z,17.08
2023-01-19T07:50:41.872Z,16.73
2023-01-19T07:53:11.709Z,24.67
2023-01-19T07:55:39.226Z,30.85
2023-01-19T07:58:08.108Z,23.67
2023-01-19T08:00:36.585Z,22.65
2023-01-19T08:03:05.253Z,25.52
2023-01-19T08:05:34.078Z,23.35
2023-01-19T08:08:01.821Z,26.33
2023-01-19T08:10:29.901Z,21.30
2023-01-19T08:12:59.345Z,22.50
2023-01-19T08:15:28.666Z,20.40
2023-01-19T08:17:57.693Z,17.70
2023-01-19T08:20:25.768Z,21.58
2023-01-19T08:22:59.808Z,22.27
2023-01-19T08:25:33.045Z,19.38
2023-01-19T08:28:01.048Z,19.05
2023-01-19T08:30:30.380Z,20.33
2023-01-19T08:33:04.127Z,20.05
2023-01-19T08:35:32.050Z,17.58
2023-01-19T08:38:01.540Z,21.30
2023-01-19T08:40:29.624Z,15.70
2023-01-19T08:43:00.964Z,24.17
2023-01-19T08:45:30.913Z,24.60
2023-01-19T08:47:59.031Z,21.85
2023-01-19T08:50:27.051Z,18.95
2023-01-19T08:52:56.857Z,18.45
2023-01-19T08:55:24.353Z,17.13
2023-01-19T08:57:53.545Z,17.42
2023-01-19T09:00:22.481Z,16.58
2023-01-19T09:02:51.522Z,20.55
2023-01-19T09:05:19.319Z,17.42
2023-01-19T09:07:47.984Z,24.85
2023-01-19T09:10:16.198Z,25.05
2023-01-19T09:12:44.864Z,20.10
2023-01-19T09:15:13.945Z,20.73
2023-01-19T09:17:42.110Z,21.75
2023-01-19T09:20:11.967Z,21.83
2023-01-19T09:22:39.529Z,22.63
2023-01-19T09:25:08.235Z,22.92
2023-01-19T09:27:36.673Z,24.48
2023-01-19T09:30:05.171Z,21.40
2023-01-19T09:32:32.672Z,23.02
2023-01-19T09:35:00.234Z,19.30
2023-01-19T09:37:29.068Z,22.73
2023-01-19T09:39:56.628Z,20.17
2023-01-19T09:42:28.514Z,21.95
2023-01-19T09:44:56.024Z,20.43
2023-01-19T09:47:28.392Z,20.92
2023-01-19T09:49:59.806Z,22.73
2023-01-19T09:52:29.718Z,17.60
2023-01-19T09:54:59.011Z,17.02
2023-01-19T09:57:28.339Z,16.40
2023-01-19T09:59:59.428Z,16.38
2023-01-19T10:02:36.687Z,11.40
2023-01-19T10:05:06.381Z,13.75
2023-01-19T10:07:48.756Z,14.38
2023-01-19T10:10:21.776Z,14.57
2023-01-19T10:13:04.911Z,14.73
2023-01-19T10:15:41.718Z,11.25
2023-01-19T10:18:17.605Z,12.25
2023-01-19T10:20:50.040Z,11.25
2023-01-19T10:23:40.572Z,12.18
2023-01-19T10:26:14.674Z,12.30
2023-01-19T10:28:42.600Z,10.77
2023-01-19T10:31:10.402Z,14.98
2023-01-19T10:33:39.462Z,15.95
2023-01-19T10:36:16.414Z,12.02
2023-01-19T10:38:45.969Z,11.13
2023-01-19T10:41:18.824Z,10.05
2023-01-19T10:46:22.653Z,11.13
2023-01-19T10:48:51.979Z,8.30
2023-01-19T10:51:19.910Z,8.27
2023-01-19T10:53:58.303Z,8.77
2023-01-19T10:56:29.090Z,8.02
2023-01-19T10:58:56.618Z,9.75
2023-01-19T11:01:26.537Z,12.27
2023-01-19T11:03:57.058Z,10.50
2023-01-19T11:06:27.687Z,11.10
2023-01-19T11:09:11.730Z,11.80
2023-01-19T11:11:44.628Z,8.82
2023-01-19T11:14:14.977Z,10.35
2023-01-19T11:16:48.198Z,13.80
2023-01-19T11:19:23.106Z,8.70
2023-01-19T11:21:50.625Z,10.60
2023-01-19T11:24:20.060Z,9.52
2023-01-19T11:26:51.219Z,12.30
2023-01-19T11:29:23.224Z,8.90
2023-01-19T11:31:52.373Z,10.90
2023-01-19T11:34:26.698Z,7.78
2023-01-19T11:36:59.279Z,8.23
2023-01-19T11:39:30.291Z,8.95
2023-01-19T11:42:01.632Z,6.90
2023-01-19T11:44:33.472Z,7.57
2023-01-19T11:47:05.828Z,7.93
2023-01-19T11:49:41.536Z,6.57
2023-01-19T11:52:19.220Z,7.22
2023-01-19T11:54:53.195Z,7.40
2023-01-19T11:57:20.754Z,6.40
2023-01-19T11:59:49.730Z,8.80
2023-01-19T12:02:24.962Z,7.63
2023-01-19T12:04:57.231Z,7.60
2023-01-19T12:07:30.020Z,8.18
2023-01-19T12:12:35.248Z,8.82
2023-01-19T12:15:07.736Z,7.07
2023-01-19T12:17:38.605Z,7.50
2023-01-19T12:20:14.895Z,7.53
2023-01-19T12:22:50.738Z,9.25
2023-01-19T12:25:23.733Z,6.70
2023-01-19T12:27:52.763Z,5.97
2023-01-19T12:30:24.008Z,7.18
2023-01-19T12:32:52.097Z,5.97
2023-01-19T12:35:57.841Z,5.50
2023-01-19T12:38:36.461Z,6.00
2023-01-19T12:41:19.901Z,4.15
2023-01-19T12:43:48.096Z,4.78
2023-01-19T12:46:21.058Z,4.80
2023-01-19T12:48:48.632Z,5.22
2023-01-19T12:51:24.202Z,5.82
2023-01-19T12:53:54.123Z,5.45
2023-01-19T12:56:29.692Z,5.13
2023-01-19T12:58:57.513Z,4.13
2023-01-19T13:01:26.934Z,4.53
2023-01-19T13:04:09.106Z,5.68
2023-01-19T13:07:17.830Z,5.43
2023-01-19T13:09:45.371Z,4.72
2023-01-19T13:12:22.847Z,5.78
2023-01-19T13:14:51.252Z,6.28
2023-01-19T13:17:29.337Z,5.10
2023-01-19T13:20:05.927Z,5.95
2023-01-19T13:22:52.118Z,6.75
2023-01-19T13:25:30.324Z,4.53
2023-01-19T13:27:59.605Z,5.60
2023-01-19T13:30:29.012Z,5.90
2023-01-19T13:33:02.354Z,5.05
2023-01-19T13:35:29.815Z,4.22
2023-01-19T13:37:59.162Z,3.95
2023-01-19T13:40:37.052Z,4.20
2023-01-19T13:43:15.657Z,4.53
2023-01-19T13:45:50.693Z,5.05
2023-01-19T13:48:22.372Z,2.75
2023-01-19T13:51:02.176Z,4.20
2023-01-19T13:53:30.358Z,4.88
2023-01-19T13:56:18.060Z,4.05
2023-01-19T13:58:58.605Z,6.15
2023-01-19T14:01:29.096Z,6.32
2023-01-19T14:03:57.088Z,7.50
2023-01-19T14:06:36.801Z,5.25
2023-01-19T14:09:17.588Z,6.20
2023-01-19T14:11:46.566Z,5.38
2023-01-19T14:14:29.038Z,7.80
2023-01-19T14:16:56.595Z,6.13
2023-01-19T14:19:24.463Z,5.18
2023-01-19T14:22:03.140Z,6.20
2023-01-19T14:24:32.958Z,5.47
2023-01-19T14:27:19.157Z,4.47
2023-01-19T14:29:50.594Z,5.05
2023-01-19T14:32:20.492Z,4.78
2023-01-19T14:34:50.173Z,6.25
2023-01-19T14:37:23.729Z,6.10
2023-01-19T14:39:52.497Z,7.38
2023-01-19T14:42:25.878Z,5.15
2023-01-19T14:44:57.299Z,7.53
2023-01-19T14:47:31.894Z,6.53
2023-01-19T14:50:07.377Z,6.28
2023-01-19T14:52:39.083Z,6.53
2023-01-19T14:55:17.113Z,7.57
2023-01-19T14:57:44.603Z,9.30
2023-01-19T15:00:17.677Z,8.68
2023-01-19T15:02:45.441Z,8.15
2023-01-19T15:05:13.826Z,6.93
2023-01-19T15:07:44.430Z,6.85
2023-01-19T15:10:18.270Z,5.95
2023-01-19T15:12:46.196Z,8.10
2023-01-19T15:15:22.588Z,8.90
2023-01-19T15:17:50.795Z,7.43
2023-01-19T15:20:21.001Z,8.73
2023-01-19T15:22:48.869Z,7.47
2023-01-19T15:25:18.006Z,7.55
2023-01-19T15:27:46.763Z,7.57
2023-01-19T15:30:18.698Z,10.82
2023-01-19T15:32:46.400Z,5.88
2023-01-19T15:35:15.340Z,10.18
2023-01-19T15:37:42.880Z,6.63
2023-01-19T15:40:11.779Z,6.85
2023-01-19T15:42:40.147Z,8.40
2023-01-19T15:45:36.129Z,9.15
2023-01-19T15:48:05.944Z,7.35
2023-01-19T15:50:34.653Z,7.28
2023-01-19T15:53:02.479Z,6.78
2023-01-19T15:55:30.269Z,6.97
2023-01-19T15:58:01.678Z,7.50
2023-01-19T16:00:32.484Z,6.90
2023-01-19T16:03:01.425Z,8.80
2023-01-19T16:05:41.949Z,6.85
2023-01-19T16:08:10.417Z,7.43
2023-01-19T16:10:37.997Z,7.65
2023-01-19T16:13:05.603Z,7.03
2023-01-19T16:15:35.730Z,8.18
2023-01-19T16:18:03.357Z,6.30
2023-01-19T16:20:30.957Z,7.90
2023-01-19T16:23:09.607Z,9.05
2023-01-19T16:28:09.245Z,7.75
2023-01-19T16:30:38.129Z,8.88
2023-01-19T16:33:05.803Z,11.90
2023-01-19T16:35:33.257Z,10.65
2023-01-19T16:38:00.704Z,11.13
2023-01-19T16:40:28.458Z,9.48
2023-01-19T16:42:55.973Z,11.45
2023-01-19T16:45:23.489Z,12.30
2023-01-19T16:47:52.345Z,7.57
2023-01-19T16:50:20.376Z,8.02
2023-01-19T16:52:47.880Z,8.25
2023-01-19T16:55:15.370Z,12.82
2023-01-19T16:57:42.889Z,8.85
2023-01-19T17:00:11.732Z,8.43
2023-01-19T17:02:39.368Z,8.35
2023-01-19T17:05:09.521Z,8.55
2023-01-19T17:07:37.091Z,8.75
2023-01-19T17:10:05.482Z,9.57
2023-01-19T17:12:32.988Z,7.60
2023-01-19T17:15:00.491Z,9.85
2023-01-19T17:17:28.029Z,12.35
2023-01-19T17:19:55.489Z,14.50
2023-01-19T17:22:24.302Z,8.10
2023-01-19T17:24:51.799Z,9.40
2023-01-19T17:27:19.280Z,8.60
2023-01-19T17:29:49.175Z,8.50
2023-01-19T17:32:17.329Z,8.30
2023-01-19T17:34:46.583Z,10.00
2023-01-19T17:37:14.088Z,8.80
2023-01-19T17:39:42.966Z,8.88
2023-01-19T17:42:10.685Z,9.43
2023-01-19T17:44:38.193Z,10.10
2023-01-19T17:47:05.738Z,8.18
2023-01-19T17:49:33.384Z,10.35
2023-01-19T17:52:00.848Z,11.20
2023-01-19T17:54:28.539Z,10.10
2023-01-19T17:56:57.365Z,9.35
2023-01-19T17:59:24.901Z,13.88
2023-01-19T18:01:52.395Z,14.48
2023-01-19T18:04:19.864Z,14.82
2023-01-19T18:06:49.039Z,13.00
2023-01-19T18:09:16.866Z,10.27
2023-01-19T18:11:45.291Z,10.73
2023-01-19T18:14:14.379Z,10.45
2023-01-19T18:16:41.865Z,12.65
2023-01-19T18:19:09.443Z,15.30
2023-01-19T18:21:38.039Z,14.75
2023-01-19T18:26:42.522Z,13.38
2023-01-19T18:29:10.512Z,10.65
2023-01-19T18:31:44.297Z,11.73
2023-01-19T18:34:12.121Z,9.35
2023-01-19T18:36:39.890Z,13.32
2023-01-19T18:39:09.528Z,10.20
2023-01-19T18:41:41.627Z,11.13
2023-01-19T18:44:09.871Z,11.23
2023-01-19T18:46:40.394Z,36.20
2023-01-19T18:49:09.783Z,19.00
2023-01-19T18:51:39.570Z,13.80
2023-01-19T18:54:08.166Z,13.43
2023-01-19T18:56:36.168Z,10.57
2023-01-19T18:59:05.271Z,9.93
2023-01-19T19:01:36.055Z,9.60
2023-01-19T19:04:07.201Z,9.10
2023-01-19T19:06:35.837Z,10.65
2023-01-19T19:09:03.689Z,15.73
2023-01-19T19:11:31.479Z,10.70
2023-01-19T19:14:01.448Z,8.25
2023-01-19T19:16:30.060Z,11.85
2023-01-19T19:19:01.499Z,10.68
2023-01-19T19:21:30.582Z,14.35
2023-01-19T19:23:59.697Z,12.68
2023-01-19T19:26:28.253Z,13.90
2023-01-19T19:28:56.157Z,12.95
2023-01-19T19:31:26.324Z,12.25
2023-01-19T19:33:58.982Z,20.45
2023-01-19T19:36:28.832Z,20.85
2023-01-19T19:38:59.692Z,19.80
2023-01-19T19:41:28.936Z,15.93
2023-01-19T19:43:59.567Z,19.67
2023-01-19T19:46:27.828Z,14.38
2023-01-19T19:48:55.859Z,12.55
2023-01-19T19:51:25.545Z,14.90
2023-01-19T19:53:54.483Z,20.15
2023-01-19T19:56:25.260Z,22.63
2023-01-19T19:58:56.006Z,19.38
2023-01-19T20:01:27.631Z,19.38
2023-01-19T20:03:56.686Z,18.10
2023-01-19T20:06:25.994Z,18.15
2023-01-19T20:08:55.901Z,20.90
2023-01-19T20:11:27.870Z,28.13
2023-01-19T20:13:55.898Z,24.65
2023-01-19T20:16:24.370Z,15.65
2023-01-19T20:18:55.409Z,15.35
2023-01-19T20:21:25.235Z,12.48
2023-01-19T20:23:53.959Z,12.63
2023-01-19T20:26:27.827Z,11.77
2023-01-19T20:29:03.390Z,13.73
2023-01-19T20:31:33.869Z,11.55
2023-01-19T20:34:05.393Z,11.95
2023-01-19T20:36:33.585Z,12.52
2023-01-19T20:39:08.542Z,12.70
2023-01-19T20:41:43.327Z,13.18
2023-01-19T20:44:13.147Z,12.15
2023-01-19T20:46:41.233Z,10.68
2023-01-19T20:49:08.902Z,13.00
2023-01-19T20:51:37.501Z,14.95
2023-01-19T20:54:05.263Z,11.60
2023-01-19T20:56:33.098Z,10.63
2023-01-19T20:59:02.750Z,12.40
2023-01-19T21:01:30.671Z,10.05
2023-01-19T21:03:58.370Z,12.05
2023-01-19T21:06:26.064Z,11.88
2023-01-19T21:08:53.739Z,14.65
2023-01-19T21:11:23.964Z,9.55
2023-01-19T21:13:55.594Z,10.05
2023-01-19T21:16:26.206Z,10.13
2023-01-19T21:18:54.465Z,10.25
2023-01-19T21:21:30.494Z,11.73
2023-01-19T21:23:59.475Z,15.70
2023-01-19T21:26:29.629Z,10.57
2023-01-19T21:29:17.418Z,8.80
2023-01-19T21:31:49.148Z,7.65
2023-01-19T21:34:20.673Z,8.98
2023-01-19T21:36:51.163Z,13.23
2023-01-19T21:39:18.872Z,11.80
2023-01-19T21:41:49.340Z,11.07
2023-01-19T21:44:20.328Z,16.73
2023-01-19T21:46:49.339Z,13.05
2023-01-19T21:49:19.135Z,18.15
2023-01-19T21:51:48.110Z,18.30
2023-01-19T21:54:22.133Z,18.33
2023-01-19T21:56:49.753Z,20.70
2023-01-19T21:59:19.685Z,17.20
2023-01-19T22:01:49.560Z,14.13
2023-01-19T22:04:17.981Z,17.77
2023-01-19T22:06:45.600Z,14.55
2023-01-19T22:09:13.208Z,13.70
2023-01-19T22:11:40.780Z,13.93
2023-01-19T22:14:08.360Z,17.75
2023-01-19T22:16:36.391Z,11.32
2023-01-19T22:19:18.477Z,12.45
2023-01-19T22:21:46.965Z,12.13
2023-01-19T22:24:14.611Z,13.13
2023-01-19T22:26:42.327Z,12.35
2023-01-19T22:29:11.233Z,13.20
2023-01-19T22:31:45.809Z,15.60
2023-01-19T22:34:20.980Z,13.13
2023-01-19T22:36:49.592Z,12.40
2023-01-19T22:39:22.007Z,13.77
2023-01-19T22:41:49.671Z,13.55
2023-01-19T22:44:20.773Z,13.30
2023-01-19T22:46:51.258Z,19.33
2023-01-19T22:49:20.356Z,18.58
2023-01-19T22:51:48.140Z,18.73
2023-01-19T22:54:16.307Z,16.73
2023-01-19T22:56:43.879Z,18.35
2023-01-19T22:59:11.500Z,16.08
2023-01-19T23:01:40.461Z,13.90
2023-01-19T23:04:09.956Z,16.17
2023-01-19T23:06:39.049Z,15.43
2023-01-19T23:09:09.211Z,14.07
2023-01-19T23:11:39.463Z,16.48
2023-01-19T23:14:09.663Z,16.02
2023-01-19T23:16:37.404Z,14.18
2023-01-19T23:19:05.736Z,17.17
2023-01-19T23:21:33.715Z,19.63
2023-01-19T23:24:04.534Z,19.08
2023-01-19T23:26:37.937Z,17.60
2023-01-19T23:29:07.482Z,18.02
2023-01-19T23:31:37.672Z,17.55
2023-01-19T23:34:07.566Z,12.50
2023-01-19T23:36:36.685Z,12.40
2023-01-19T23:39:09.803Z,16.95
2023-01-19T23:41:37.439Z,12.13
2023-01-19T23:44:05.517Z,14.95
2023-01-19T23:46:33.474Z,14.02
2023-01-19T23:49:01.136Z,17.67
2023-01-19T23:51:30.635Z,13.60
2023-01-19T23:53:59.638Z,16.42
2023-01-19T23:56:30.139Z,15.65
2023-01-19T23:58:59.579Z,17.98
